Terminal Aerodrome Forecast
Issued by NWS Northern Indiana

Home | Current Version | Previous Version | Graphics & Text | Print | Product List | Glossary On
Versions: 1 2 3 4 5 6 7 8 9 10 11 12 13 14 15 16 17 18 19
030
FTUS43 KIWX 240541
TAFFWA
TAF
KFWA 240541Z 2406/2506 13007KT P6SM OVC035
     FM241400 19013KT P6SM OVC025
     FM241700 20016KT P6SM OVC040
     FM242100 20015KT P6SM VCSH OVC035
      TEMPO 2423/2503 28025G43KT 1SM +TSRA OVC015CB
     FM250300 25012G20KT P6SM OVC015
     FM250500 25012G21KT P6SM BKN020=

USA.gov is the U.S. government's official web portal to all federal, state and local government web resources and services.